Time;durP1;ratioP1;P1;durP2;ratioP2;P2;SDS_P1;SDS_P2;PMS_P1;PMS_P2;Temp;Humidity;BMP_temperature;BMP_pressure;BME280_temperature;BME280_humidity;BME280_pressure;Samples;Min_cycle;Max_cycle;Signal;HPM_P1;HPM_P2
2022/04/18 00:01:46;;;;;;;1.70;1.10;;;18.80;40.60;;;;;;5120535;27;47479;-75
2022/04/18 00:04:13;;;;;;;1.40;0.90;;;18.90;40.40;;;;;;5118259;27;45148;-76
2022/04/18 00:06:39;;;;;;;1.10;0.90;;;18.90;40.50;;;;;;5119917;27;45238;-76
2022/04/18 00:09:07;;;;;;;1.33;0.90;;;18.90;40.60;;;;;;5122983;27;45191;-76
2022/04/18 00:11:35;;;;;;;1.75;1.25;;;18.80;40.60;;;;;;5120237;27;45369;-76
2022/04/18 00:14:02;;;;;;;1.42;1.00;;;18.80;40.70;;;;;;5118731;27;45618;-76
2022/04/18 00:16:30;;;;;;;0.95;0.82;;;18.80;40.30;;;;;;5118135;27;45119;-76
2022/04/18 00:18:57;;;;;;;1.52;1.02;;;18.80;40.80;;;;;;5117027;27;45723;-76
2022/04/18 00:21:24;;;;;;;0.77;0.60;;;18.80;40.70;;;;;;5115919;27;46088;-76
2022/04/18 00:23:51;;;;;;;1.38;1.00;;;18.80;40.90;;;;;;5119988;27;45300;-76
2022/04/18 00:26:18;;;;;;;0.90;0.80;;;18.80;40.50;;;;;;5117004;27;45175;-76
2022/04/18 00:28:45;;;;;;;1.23;0.90;;;18.80;40.70;;;;;;5119180;27;45170;-76
2022/04/18 00:31:12;;;;;;;1.83;1.05;;;18.80;40.50;;;;;;5119473;27;46297;-76
2022/04/18 00:33:40;;;;;;;1.17;0.88;;;18.80;40.70;;;;;;5119752;27;45319;-76
2022/04/18 00:36:07;;;;;;;1.15;0.90;;;18.80;40.70;;;;;;5117198;27;45188;-75
2022/04/18 00:38:33;;;;;;;0.90;0.80;;;18.80;40.60;;;;;;5125374;27;45262;-76
2022/04/18 00:41:00;;;;;;;0.70;0.70;;;18.80;40.70;;;;;;5123429;27;47055;-76
2022/04/18 00:43:41;;;;;;;0.90;0.80;;;18.90;40.90;;;;;;5117134;27;45356;-76
2022/04/18 00:46:08;;;;;;;1.40;0.90;;;18.80;40.60;;;;;;5119694;27;45223;-76
2022/04/18 00:48:36;;;;;;;1.20;0.70;;;18.90;40.70;;;;;;5114995;27;45262;-76
2022/04/18 00:51:06;;;;;;;1.00;0.90;;;18.80;40.70;;;;;;5114958;27;46174;-75
2022/04/18 00:53:33;;;;;;;1.60;1.00;;;18.80;40.70;;;;;;5129614;27;45335;-75
2022/04/18 00:56:00;;;;;;;1.45;1.10;;;18.90;40.80;;;;;;5128220;27;45258;-76
2022/04/18 00:58:27;;;;;;;1.17;1.00;;;18.80;40.60;;;;;;5128240;27;45391;-75
2022/04/18 01:00:54;;;;;;;1.48;0.93;;;18.80;40.60;;;;;;5127501;27;45231;-75
2022/04/18 01:03:21;;;;;;;0.75;0.73;;;18.80;40.60;;;;;;5125528;27;45198;-75
2022/04/18 01:05:48;;;;;;;1.23;0.82;;;18.80;40.50;;;;;;5129258;27;45293;-75
2022/04/18 01:08:16;;;;;;;1.10;0.80;;;18.80;40.60;;;;;;5127921;27;45146;-76
2022/04/18 01:10:44;;;;;;;1.42;0.90;;;18.80;40.70;;;;;;5106863;27;48360;-76
2022/04/18 01:13:11;;;;;;;1.10;0.80;;;18.80;40.70;;;;;;5106211;27;45176;-76
2022/04/18 01:15:38;;;;;;;0.98;0.85;;;18.70;40.40;;;;;;5107992;27;45187;-76
2022/04/18 01:18:05;;;;;;;1.65;0.90;;;18.80;40.40;;;;;;5108978;27;45292;-75
2022/04/18 01:20:35;;;;;;;1.50;0.82;;;18.80;40.30;;;;;;5105759;27;45262;-76
2022/04/18 01:23:06;;;;;;;0.82;0.82;;;18.80;40.30;;;;;;5123482;27;45274;-76
2022/04/18 01:31:01;;;;;;;1.30;0.70;;;18.80;40.60;;;;;;5110410;27;45573;-75
2022/04/18 01:33:29;;;;;;;1.02;0.70;;;18.80;40.70;;;;;;5125970;27;45289;-75
2022/04/18 01:35:56;;;;;;;0.93;0.73;;;18.80;40.70;;;;;;5126335;27;45305;-76
2022/04/18 01:38:24;;;;;;;1.23;0.80;;;18.80;40.60;;;;;;5128283;27;45489;-75
2022/04/18 01:40:51;;;;;;;1.17;0.90;;;18.80;40.50;;;;;;5128382;27;47917;-75
2022/04/18 01:43:18;;;;;;;1.45;0.82;;;18.80;40.50;;;;;;5125409;27;45564;-76
2022/04/18 01:45:45;;;;;;;0.65;0.60;;;18.80;40.70;;;;;;5142136;27;45378;-76
2022/04/18 01:48:13;;;;;;;1.45;1.00;;;18.80;40.40;;;;;;5148267;27;45363;-76
2022/04/18 01:50:40;;;;;;;0.90;0.68;;;18.90;40.60;;;;;;5124965;27;45228;-76
2022/04/18 01:53:07;;;;;;;0.95;0.75;;;18.90;40.50;;;;;;5128685;27;45233;-76
2022/04/18 01:55:35;;;;;;;0.93;0.80;;;18.80;40.30;;;;;;5131580;27;45306;-76
2022/04/18 01:58:05;;;;;;;1.20;0.80;;;18.80;40.10;;;;;;5110960;27;45273;-76
2022/04/18 02:00:32;;;;;;;0.75;0.65;;;18.80;40.00;;;;;;5129150;27;45266;-76
2022/04/18 02:02:58;;;;;;;2.28;0.80;;;18.80;40.20;;;;;;5129220;27;45301;-76
2022/04/18 02:05:25;;;;;;;1.30;1.00;;;18.80;40.20;;;;;;5110693;27;45239;-75
2022/04/18 02:07:52;;;;;;;1.75;0.85;;;18.80;40.40;;;;;;5129037;27;45309;-76
2022/04/18 02:10:19;;;;;;;1.48;0.80;;;18.80;40.30;;;;;;5110356;27;46363;-76
2022/04/18 02:12:47;;;;;;;0.90;0.80;;;18.80;40.20;;;;;;5111757;27;45493;-76
2022/04/18 02:15:15;;;;;;;0.70;0.70;;;18.80;40.30;;;;;;5111862;27;45263;-76
2022/04/18 02:17:42;;;;;;;4.18;0.90;;;18.80;40.40;;;;;;5127036;27;45364;-76
2022/04/18 02:20:09;;;;;;;0.77;0.70;;;18.80;40.10;;;;;;5111584;27;46594;-76
2022/04/18 02:22:36;;;;;;;1.02;0.88;;;18.80;40.20;;;;;;5125915;27;45347;-76
2022/04/18 02:25:03;;;;;;;1.10;0.88;;;18.80;40.30;;;;;;5122908;27;45204;-76
2022/04/18 02:27:30;;;;;;;1.52;0.90;;;18.80;40.40;;;;;;5124830;27;45186;-76
2022/04/18 02:29:58;;;;;;;2.35;0.65;;;18.80;40.10;;;;;;5122488;27;46663;-76
2022/04/18 02:35:10;;;;;;;1.40;0.60;;;18.80;40.40;;;;;;5129311;27;45283;-76
2022/04/18 02:37:36;;;;;;;1.08;0.82;;;18.80;40.20;;;;;;5116290;27;45094;-76
2022/04/18 02:40:04;;;;;;;1.27;0.80;;;18.80;40.10;;;;;;5124271;27;45099;-76
2022/04/18 02:42:30;;;;;;;1.05;0.55;;;18.80;40.30;;;;;;5120564;27;45658;-76
2022/04/18 02:44:59;;;;;;;1.00;0.70;;;18.90;40.20;;;;;;5127942;27;45233;-76
2022/04/18 02:47:25;;;;;;;1.17;0.73;;;18.80;40.00;;;;;;5131766;27;45264;-76
2022/04/18 02:49:52;;;;;;;1.02;0.80;;;18.90;40.20;;;;;;5130414;27;45985;-76
2022/04/18 02:52:19;;;;;;;0.90;0.60;;;18.80;39.90;;;;;;5149517;27;45263;-76
2022/04/18 02:54:46;;;;;;;1.60;0.93;;;18.80;39.80;;;;;;5133591;27;45282;-76
2022/04/18 02:57:13;;;;;;;1.02;0.70;;;18.80;39.60;;;;;;5131253;27;45342;-76
2022/04/18 02:59:40;;;;;;;1.10;0.85;;;18.80;39.70;;;;;;5119606;27;46554;-76
2022/04/18 03:02:08;;;;;;;0.77;0.57;;;18.80;39.70;;;;;;5127846;27;45196;-76
2022/04/18 03:04:35;;;;;;;1.52;0.82;;;18.80;39.60;;;;;;5117451;27;45317;-75
2022/04/18 03:07:02;;;;;;;0.95;0.80;;;18.80;39.60;;;;;;5124010;27;45507;-76
2022/04/18 03:09:29;;;;;;;1.50;0.85;;;18.80;39.80;;;;;;5130388;27;45244;-77
2022/04/18 03:11:56;;;;;;;1.40;1.00;;;18.80;39.60;;;;;;5129361;27;45211;-77
2022/04/18 03:14:23;;;;;;;0.90;0.80;;;18.80;39.30;;;;;;5128722;27;45150;-77
2022/04/18 03:16:50;;;;;;;0.85;0.70;;;18.80;39.20;;;;;;5110285;27;45386;-78
2022/04/18 03:19:18;;;;;;;0.63;0.52;;;18.80;39.40;;;;;;5116209;27;46567;-78
2022/04/18 03:21:45;;;;;;;1.17;0.75;;;18.80;39.70;;;;;;5130494;27;45161;-77
2022/04/18 03:24:12;;;;;;;1.30;0.70;;;18.80;40.00;;;;;;5127525;27;45173;-77
2022/04/18 03:26:39;;;;;;;1.15;0.95;;;18.70;40.00;;;;;;5107822;27;45849;-78
2022/04/18 03:29:06;;;;;;;0.60;0.60;;;18.80;40.00;;;;;;5112858;27;48368;-77
2022/04/18 03:31:32;;;;;;;0.73;0.57;;;18.80;40.10;;;;;;5129231;27;45421;-77
2022/04/18 03:33:59;;;;;;;1.23;0.60;;;18.80;40.20;;;;;;5128616;27;45277;-77
2022/04/18 03:41:56;;;;;;;0.60;0.50;;;18.80;40.00;;;;;;5116207;27;45256;-77
2022/04/18 03:44:23;;;;;;;0.95;0.63;;;18.80;40.00;;;;;;5108690;27;45170;-78
2022/04/18 03:46:50;;;;;;;0.93;0.60;;;18.80;40.00;;;;;;5111949;27;45356;-77
2022/04/18 03:49:18;;;;;;;0.80;0.70;;;18.80;39.80;;;;;;5118110;27;46052;-78
2022/04/18 03:51:46;;;;;;;1.10;0.80;;;18.80;39.70;;;;;;5129207;27;45227;-77
2022/04/18 03:54:13;;;;;;;0.60;0.60;;;18.80;39.70;;;;;;5129581;27;45375;-77
2022/04/18 03:56:40;;;;;;;1.30;0.90;;;18.80;39.90;;;;;;5127763;27;45136;-77
2022/04/18 03:59:07;;;;;;;1.17;0.73;;;18.70;39.90;;;;;;5126331;27;45281;-77
2022/04/18 04:01:33;;;;;;;0.82;0.65;;;18.80;39.90;;;;;;5131841;27;45290;-77
2022/04/18 04:04:00;;;;;;;0.60;0.60;;;18.80;40.00;;;;;;5129507;27;45236;-77
2022/04/18 04:06:27;;;;;;;1.60;0.90;;;18.70;39.80;;;;;;5123699;27;45345;-77
2022/04/18 04:08:55;;;;;;;0.93;0.68;;;18.80;40.00;;;;;;5126410;27;45303;-77
2022/04/18 04:11:22;;;;;;;1.02;0.80;;;18.70;39.80;;;;;;5129811;27;45244;-77
2022/04/18 04:13:49;;;;;;;1.02;0.68;;;18.80;40.00;;;;;;5127045;27;45189;-77
2022/04/18 04:16:16;;;;;;;0.65;0.65;;;18.70;39.90;;;;;;5125394;27;46091;-78
2022/04/18 04:18:43;;;;;;;0.68;0.63;;;18.70;39.90;;;;;;5121671;27;48398;-77
2022/04/18 04:21:09;;;;;;;1.02;0.77;;;18.70;40.00;;;;;;5126769;27;45433;-77
2022/04/18 04:23:36;;;;;;;1.00;0.70;;;18.70;40.00;;;;;;5125030;27;45350;-77
2022/04/18 04:26:04;;;;;;;0.70;0.60;;;18.80;40.10;;;;;;5124260;27;45333;-77
2022/04/18 04:28:31;;;;;;;1.77;0.90;;;18.80;40.30;;;;;;5127220;27;45204;-77
2022/04/18 04:30:58;;;;;;;1.27;0.70;;;18.80;40.20;;;;;;5126989;27;45291;-78
2022/04/18 04:33:25;;;;;;;2.00;0.90;;;18.80;40.20;;;;;;5125529;27;45167;-78
2022/04/18 04:35:52;;;;;;;1.48;0.82;;;18.80;40.10;;;;;;5129331;27;45204;-77
2022/04/18 04:38:19;;;;;;;0.93;0.70;;;18.80;40.20;;;;;;5120967;27;45534;-77
2022/04/18 04:40:45;;;;;;;0.90;0.73;;;18.80;40.10;;;;;;5128870;27;45107;-77
2022/04/18 04:43:13;;;;;;;1.33;0.80;;;18.80;40.00;;;;;;5123608;27;45499;-78
2022/04/18 04:45:40;;;;;;;0.70;0.70;;;18.80;39.70;;;;;;5126191;27;45723;-77
2022/04/18 04:48:07;;;;;;;0.88;0.60;;;18.80;39.60;;;;;;5127262;27;46224;-77
2022/04/18 04:50:34;;;;;;;0.82;0.70;;;18.80;40.00;;;;;;5119820;27;45233;-77
2022/04/18 04:53:01;;;;;;;1.48;0.73;;;18.80;40.10;;;;;;5125558;27;45554;-77
2022/04/18 04:55:28;;;;;;;1.30;0.60;;;18.80;40.00;;;;;;5126797;27;45153;-77
2022/04/18 04:57:55;;;;;;;1.35;1.02;;;18.80;40.30;;;;;;5126346;27;48152;-78
2022/04/18 05:00:24;;;;;;;1.35;0.98;;;18.80;40.20;;;;;;5120830;27;45331;-77
2022/04/18 05:02:51;;;;;;;0.80;0.60;;;18.80;40.20;;;;;;5124767;27;45151;-78
2022/04/18 05:05:18;;;;;;;1.02;0.60;;;18.80;40.00;;;;;;5124917;27;45323;-77
2022/04/18 05:07:45;;;;;;;1.45;0.80;;;18.80;40.00;;;;;;5127263;27;45641;-77
2022/04/18 05:10:11;;;;;;;1.20;0.70;;;18.80;40.00;;;;;;5125666;27;45504;-78
2022/04/18 05:12:38;;;;;;;0.75;0.60;;;18.70;39.90;;;;;;5124987;27;45376;-78
2022/04/18 05:15:06;;;;;;;0.80;0.63;;;18.70;40.10;;;;;;5121106;27;45283;-77
2022/04/18 05:17:34;;;;;;;0.68;0.57;;;18.80;40.50;;;;;;5125492;27;45226;-77
2022/04/18 05:20:03;;;;;;;0.90;0.70;;;18.80;40.90;;;;;;5121336;27;45497;-77
2022/04/18 05:22:30;;;;;;;0.68;0.68;;;18.70;40.80;;;;;;5123868;27;45272;-77
2022/04/18 05:24:57;;;;;;;0.75;0.70;;;18.80;41.00;;;;;;5126810;27;45232;-77
2022/04/18 05:27:24;;;;;;;1.10;0.70;;;18.70;40.90;;;;;;5126087;27;46287;-77
2022/04/18 05:29:51;;;;;;;1.10;0.80;;;18.80;40.80;;;;;;5121247;27;45867;-76
2022/04/18 05:32:18;;;;;;;1.70;0.75;;;18.80;40.90;;;;;;5131067;27;45423;-77
2022/04/18 05:34:46;;;;;;;0.98;0.77;;;18.80;40.90;;;;;;5128988;27;45319;-77
2022/04/18 05:37:13;;;;;;;0.88;0.70;;;18.80;40.70;;;;;;5121967;27;47148;-78
2022/04/18 05:39:40;;;;;;;0.50;0.50;;;18.80;40.80;;;;;;5125619;27;45099;-77
2022/04/18 05:42:07;;;;;;;0.70;0.60;;;18.80;40.80;;;;;;5127552;27;45320;-78
2022/04/18 05:44:35;;;;;;;1.40;0.90;;;18.80;40.90;;;;;;5127763;27;45288;-77
2022/04/18 05:47:02;;;;;;;1.52;0.80;;;18.80;40.90;;;;;;5128418;27;47145;-77
2022/04/18 05:49:28;;;;;;;1.00;0.80;;;18.70;40.70;;;;;;5128627;27;45237;-78
2022/04/18 05:51:57;;;;;;;0.80;0.60;;;18.70;40.70;;;;;;5130309;27;45307;-78
2022/04/18 05:54:24;;;;;;;0.70;0.60;;;18.70;40.60;;;;;;5130375;27;45239;-77
2022/04/18 05:56:50;;;;;;;1.20;0.85;;;18.70;40.70;;;;;;5121890;27;46519;-77
2022/04/18 05:59:17;;;;;;;1.38;1.00;;;18.70;40.70;;;;;;5128634;27;45745;-78
2022/04/18 06:01:44;;;;;;;1.02;0.63;;;18.70;40.40;;;;;;5129889;27;45349;-77
2022/04/18 06:04:11;;;;;;;1.95;0.90;;;18.70;40.40;;;;;;5128996;27;45191;-78
2022/04/18 06:06:38;;;;;;;0.85;0.80;;;18.70;40.40;;;;;;5120180;27;47942;-78
2022/04/18 06:09:06;;;;;;;0.77;0.77;;;18.70;40.60;;;;;;5128055;27;45289;-78
2022/04/18 06:11:33;;;;;;;1.17;0.70;;;18.70;40.60;;;;;;5131617;27;45268;-78
2022/04/18 06:14:00;;;;;;;1.00;0.60;;;18.70;40.30;;;;;;5129061;27;46289;-78
2022/04/18 06:16:26;;;;;;;0.98;0.68;;;18.80;40.40;;;;;;5130313;27;46543;-78
2022/04/18 06:18:53;;;;;;;0.77;0.77;;;18.80;40.30;;;;;;5130095;27;45643;-78
2022/04/18 06:21:20;;;;;;;1.33;0.80;;;18.80;40.40;;;;;;5127546;27;45528;-78
2022/04/18 06:23:47;;;;;;;0.70;0.50;;;18.80;40.40;;;;;;5132538;27;45327;-78
2022/04/18 06:26:15;;;;;;;1.23;0.82;;;18.80;40.20;;;;;;5129867;27;45440;-78
2022/04/18 06:28:42;;;;;;;0.98;0.70;;;18.80;40.20;;;;;;5123522;27;45258;-77
2022/04/18 06:31:08;;;;;;;1.08;0.80;;;18.80;40.30;;;;;;5124117;27;45543;-77
2022/04/18 06:33:35;;;;;;;1.08;0.60;;;18.80;40.20;;;;;;5129571;27;45391;-77
2022/04/18 06:36:03;;;;;;;0.98;0.65;;;18.80;40.40;;;;;;5125895;27;46595;-77
2022/04/18 06:38:30;;;;;;;0.57;0.57;;;18.80;40.50;;;;;;5120195;27;45313;-77
2022/04/18 06:40:58;;;;;;;2.22;0.70;;;18.80;40.60;;;;;;5127272;27;45325;-78
2022/04/18 06:43:26;;;;;;;0.68;0.60;;;18.80;40.80;;;;;;5128737;27;45643;-78
2022/04/18 06:45:53;;;;;;;1.17;0.70;;;18.80;40.70;;;;;;5123415;27;45551;-77
2022/04/18 06:48:20;;;;;;;0.77;0.60;;;18.80;40.70;;;;;;5117197;27;46693;-77
2022/04/18 06:50:47;;;;;;;1.35;0.80;;;18.80;40.80;;;;;;5127109;27;45315;-77
2022/04/18 06:53:14;;;;;;;1.48;0.70;;;18.70;40.80;;;;;;5130130;27;45333;-78
2022/04/18 06:58:26;;;;;;;1.15;0.63;;;18.70;41.00;;;;;;5122172;27;45391;-77
2022/04/18 07:00:53;;;;;;;2.10;0.80;;;18.70;41.00;;;;;;5125468;27;45451;-77
2022/04/18 07:03:20;;;;;;;0.90;0.65;;;18.70;41.10;;;;;;5121248;27;45525;-77
2022/04/18 07:05:48;;;;;;;1.20;0.75;;;18.70;41.00;;;;;;5121374;27;46410;-77
2022/04/18 07:08:15;;;;;;;0.93;0.70;;;18.70;41.20;;;;;;5126093;27;45286;-78
2022/04/18 07:10:42;;;;;;;0.90;0.50;;;18.80;41.10;;;;;;5128468;27;45572;-78
2022/04/18 07:13:09;;;;;;;0.75;0.60;;;18.80;41.10;;;;;;5125346;27;45356;-77
2022/04/18 07:15:37;;;;;;;0.60;0.60;;;18.80;41.00;;;;;;5127726;27;46262;-78
2022/04/18 07:18:04;;;;;;;0.93;0.60;;;18.80;41.10;;;;;;5114328;27;45816;-77
2022/04/18 07:20:31;;;;;;;0.65;0.65;;;18.80;41.00;;;;;;5118824;27;45506;-77
2022/04/18 07:22:58;;;;;;;1.27;0.70;;;18.80;41.00;;;;;;5120141;27;45621;-77
2022/04/18 07:25:25;;;;;;;1.13;0.75;;;18.80;40.90;;;;;;5130749;27;45997;-77
2022/04/18 07:27:52;;;;;;;0.80;0.70;;;18.80;41.00;;;;;;5126699;27;45425;-77
2022/04/18 07:30:18;;;;;;;1.13;0.65;;;18.90;41.10;;;;;;5125231;27;45404;-78
2022/04/18 07:32:46;;;;;;;0.98;0.70;;;18.80;41.10;;;;;;5119789;27;45326;-77
2022/04/18 07:35:14;;;;;;;1.80;0.70;;;18.80;41.30;;;;;;5117686;27;48483;-78
2022/04/18 07:38:48;;;;;;;1.20;0.70;;;18.80;41.20;;;;;;5128416;27;45384;-77
2022/04/18 07:40:29;;;;;;;0.80;0.60;;;18.80;41.20;;;;;;5122451;27;45278;-77
2022/04/18 07:42:56;;;;;;;1.38;0.90;;;18.80;41.10;;;;;;5129418;27;45464;-77
2022/04/18 07:45:23;;;;;;;4.30;2.47;;;18.80;41.30;;;;;;5128826;27;45209;-78
2022/04/18 07:47:53;;;;;;;4.72;3.33;;;18.80;41.30;;;;;;5122802;27;45577;-78
2022/04/18 07:51:31;;;;;;;4.85;2.88;;;18.80;41.40;;;;;;5120922;27;46149;-78
2022/04/18 07:53:06;;;;;;;8.20;3.22;;;18.80;41.40;;;;;;5127245;27;45172;-78
2022/04/18 07:55:33;;;;;;;4.88;3.80;;;18.70;41.40;;;;;;5130068;27;45253;-78
2022/04/18 07:58:00;;;;;;;5.85;4.10;;;18.80;41.70;;;;;;5126106;27;45243;-77
2022/04/18 08:00:27;;;;;;;7.35;4.38;;;18.80;41.60;;;;;;5125633;27;46381;-78
2022/04/18 08:02:55;;;;;;;6.00;4.40;;;18.80;41.50;;;;;;5122206;27;45480;-78
2022/04/18 08:05:22;;;;;;;6.07;4.43;;;18.80;41.50;;;;;;5125422;27;47496;-77
2022/04/18 08:07:49;;;;;;;6.45;4.38;;;18.80;41.50;;;;;;5129152;27;45204;-77
2022/04/18 08:10:16;;;;;;;8.40;3.95;;;18.80;41.60;;;;;;5127867;27;45398;-77
2022/04/18 08:12:42;;;;;;;8.57;5.28;;;18.80;41.50;;;;;;5123027;27;45380;-77
2022/04/18 08:15:09;;;;;;;8.23;5.10;;;18.90;41.80;;;;;;5120507;27;45242;-76
2022/04/18 08:17:36;;;;;;;8.27;4.10;;;18.80;41.80;;;;;;5126284;27;45245;-77
2022/04/18 08:20:05;;;;;;;7.00;4.97;;;18.70;41.70;;;;;;5124851;27;45417;-76
2022/04/18 08:22:32;;;;;;;6.93;4.00;;;18.80;42.30;;;;;;5128073;27;45255;-76
2022/04/18 08:24:59;;;;;;;6.85;4.00;;;18.80;41.70;;;;;;5128061;27;47429;-76
2022/04/18 08:27:26;;;;;;;5.55;3.65;;;18.70;41.20;;;;;;5125098;27;45474;-76
2022/04/18 08:29:52;;;;;;;5.10;3.58;;;18.80;41.00;;;;;;5126520;27;46732;-76
2022/04/18 08:32:19;;;;;;;5.03;3.57;;;18.80;40.90;;;;;;5121329;27;45331;-76
2022/04/18 08:34:46;;;;;;;4.10;3.03;;;18.70;40.80;;;;;;5122303;27;45969;-77
2022/04/18 08:37:15;;;;;;;4.15;2.90;;;18.70;40.80;;;;;;5127389;27;45960;-76
2022/04/18 08:39:42;;;;;;;3.88;3.05;;;18.70;40.60;;;;;;5129256;27;45362;-75
2022/04/18 08:42:11;;;;;;;4.05;2.85;;;18.70;41.10;;;;;;5122261;27;45267;-75
2022/04/18 08:44:38;;;;;;;2.97;2.28;;;18.80;41.20;;;;;;5125637;27;45433;-76
2022/04/18 08:47:05;;;;;;;5.57;3.25;;;18.80;41.20;;;;;;5125349;27;45665;-76
2022/04/18 08:55:05;;;;;;;4.60;3.13;;;18.90;42.30;;;;;;5114053;27;46317;-76
2022/04/18 08:57:32;;;;;;;8.35;3.50;;;18.90;42.30;;;;;;5125220;27;45665;-76
2022/04/18 08:59:59;;;;;;;5.60;3.38;;;18.90;42.40;;;;;;5115051;27;45377;-76
2022/04/18 09:02:28;;;;;;;5.03;3.10;;;18.90;42.40;;;;;;5112760;27;45524;-77
2022/04/18 09:04:55;;;;;;;3.90;3.00;;;18.90;42.40;;;;;;5121453;27;46180;-76
2022/04/18 09:07:24;;;;;;;8.02;3.88;;;18.80;42.50;;;;;;5109414;27;45362;-77
2022/04/18 09:09:55;;;;;;;6.03;3.33;;;18.90;42.50;;;;;;5124334;27;45483;-76
2022/04/18 09:12:24;;;;;;;4.10;2.92;;;18.90;42.60;;;;;;5107340;27;45210;-76
2022/04/18 09:14:51;;;;;;;4.97;3.10;;;18.80;42.60;;;;;;5116876;27;45364;-76
2022/04/18 09:17:31;;;;;;;5.75;3.47;;;18.80;42.50;;;;;;5127469;27;45256;-76
2022/04/18 09:20:09;;;;;;;6.47;2.97;;;18.90;42.80;;;;;;5112119;27;45195;-76
2022/04/18 09:22:43;;;;;;;3.72;2.70;;;18.90;42.80;;;;;;5126518;27;45273;-77
2022/04/18 09:25:14;;;;;;;3.90;2.55;;;18.80;42.60;;;;;;5127701;27;46164;-76
2022/04/18 09:27:42;;;;;;;5.20;2.72;;;18.90;42.70;;;;;;5126426;27;45470;-76
2022/04/18 09:30:11;;;;;;;5.18;3.13;;;18.90;42.70;;;;;;5125879;27;45550;-76
2022/04/18 09:32:38;;;;;;;3.95;2.70;;;18.90;42.60;;;;;;5128835;27;45250;-77
2022/04/18 09:35:07;;;;;;;3.72;2.65;;;18.90;42.60;;;;;;5128109;27;45411;-77
2022/04/18 09:37:34;;;;;;;3.63;2.65;;;18.90;42.50;;;;;;5128445;27;45275;-77
2022/04/18 09:40:03;;;;;;;4.32;2.97;;;19.00;42.60;;;;;;5126326;27;45140;-77
2022/04/18 09:42:30;;;;;;;3.08;2.05;;;19.00;42.50;;;;;;5126684;27;45249;-77
2022/04/18 09:44:57;;;;;;;4.97;3.00;;;19.00;42.50;;;;;;5112703;27;46310;-76
2022/04/18 09:47:27;;;;;;;3.15;2.30;;;18.90;42.50;;;;;;5114604;27;45203;-77
2022/04/18 09:49:54;;;;;;;5.43;2.85;;;19.00;42.80;;;;;;5131081;27;45213;-76
2022/04/18 09:52:21;;;;;;;4.85;2.50;;;18.90;42.70;;;;;;5132174;27;45354;-76
2022/04/18 09:54:52;;;;;;;4.18;2.75;;;18.90;42.70;;;;;;5128522;27;47176;-76
2022/04/18 09:57:23;;;;;;;5.05;2.65;;;18.90;42.80;;;;;;5128261;27;45120;-76
2022/04/18 09:59:52;;;;;;;3.35;2.67;;;18.90;42.60;;;;;;5126657;27;45203;-76
2022/04/18 10:02:19;;;;;;;3.90;2.50;;;18.90;42.80;;;;;;5128234;27;45412;-77
2022/04/18 10:04:46;;;;;;;3.72;2.60;;;18.90;42.70;;;;;;5114560;27;46599;-77
2022/04/18 10:07:15;;;;;;;3.90;2.50;;;18.90;42.80;;;;;;5122357;27;45407;-76
2022/04/18 10:09:43;;;;;;;4.35;2.63;;;18.90;42.60;;;;;;5127510;27;45283;-76
2022/04/18 10:12:11;;;;;;;5.97;2.72;;;18.90;42.60;;;;;;5113222;27;45548;-76
2022/04/18 10:14:40;;;;;;;3.67;2.40;;;18.90;42.60;;;;;;5127799;27;47141;-77
2022/04/18 10:17:09;;;;;;;3.00;2.28;;;19.00;42.50;;;;;;5137612;27;45166;-77
2022/04/18 10:19:58;;;;;;;2.75;2.35;;;18.90;42.40;;;;;;5129948;27;45314;-77
2022/04/18 10:23:03;;;;;;;3.20;2.22;;;19.00;42.50;;;;;;5132118;27;45377;-77
2022/04/18 10:25:43;;;;;;;3.20;2.30;;;19.00;42.40;;;;;;5111258;27;45236;-77
2022/04/18 10:28:14;;;;;;;4.32;2.40;;;19.00;42.40;;;;;;5111038;27;45223;-76
2022/04/18 10:30:48;;;;;;;3.10;2.08;;;19.00;42.40;;;;;;5130988;27;45225;-77
2022/04/18 10:33:17;;;;;;;3.17;2.20;;;19.00;42.50;;;;;;5127579;27;45163;-76
2022/04/18 10:35:51;;;;;;;5.70;2.58;;;18.90;42.40;;;;;;5110279;27;45345;-77
2022/04/18 10:38:21;;;;;;;3.03;1.92;;;19.00;42.50;;;;;;5129104;27;45347;-76
2022/04/18 10:40:48;;;;;;;2.75;2.00;;;18.90;42.30;;;;;;5131589;27;45441;-76
2022/04/18 10:43:15;;;;;;;3.33;2.20;;;18.90;42.30;;;;;;5130631;27;45254;-76
2022/04/18 10:45:43;;;;;;;2.40;1.90;;;18.90;42.20;;;;;;5131148;27;48356;-77
2022/04/18 10:48:11;;;;;;;2.97;1.88;;;18.90;42.00;;;;;;5130724;27;45166;-76
2022/04/18 10:50:50;;;;;;;3.33;2.10;;;19.00;42.20;;;;;;5110785;27;45240;-76
2022/04/18 10:53:33;;;;;;;3.08;2.05;;;19.00;42.20;;;;;;5110551;27;45281;-76
2022/04/18 10:56:11;;;;;;;2.60;1.90;;;19.00;42.20;;;;;;5129483;27;45224;-76
2022/04/18 10:58:41;;;;;;;3.13;2.05;;;19.00;42.20;;;;;;5130804;27;45266;-76
2022/04/18 11:01:10;;;;;;;3.00;1.85;;;18.90;42.10;;;;;;5145330;27;45204;-77
2022/04/18 11:03:44;;;;;;;2.50;1.90;;;19.00;42.10;;;;;;5132967;27;45353;-76
2022/04/18 11:06:32;;;;;;;2.92;1.90;;;19.00;42.10;;;;;;5127496;27;47802;-76
2022/04/18 11:09:01;;;;;;;3.33;2.15;;;19.00;42.10;;;;;;5130208;27;45194;-76
2022/04/18 11:11:35;;;;;;;3.88;2.00;;;19.00;42.00;;;;;;5126464;27;45124;-76
2022/04/18 11:14:03;;;;;;;2.72;2.00;;;19.00;41.90;;;;;;5131265;27;45254;-76
2022/04/18 11:16:55;;;;;;;2.72;2.00;;;19.00;42.00;;;;;;5129924;27;45989;-76
2022/04/18 11:19:24;;;;;;;2.45;1.95;;;19.00;42.00;;;;;;5127797;27;45316;-76
2022/04/18 11:22:15;;;;;;;2.60;1.85;;;19.00;41.80;;;;;;5131193;27;45249;-76
2022/04/18 11:24:44;;;;;;;2.78;2.10;;;19.00;41.70;;;;;;5131264;27;45290;-76
2022/04/18 11:27:13;;;;;;;3.03;2.03;;;19.00;41.90;;;;;;5128059;27;46428;-77
2022/04/18 11:29:41;;;;;;;3.30;1.73;;;19.00;41.80;;;;;;5129235;27;45163;-77
2022/04/18 11:32:10;;;;;;;3.22;2.03;;;18.90;41.70;;;;;;5130653;27;45226;-76
2022/04/18 11:34:37;;;;;;;3.33;1.75;;;19.00;41.80;;;;;;5116543;27;45194;-76
2022/04/18 11:37:08;;;;;;;2.72;1.77;;;19.00;42.00;;;;;;5115577;27;46590;-76
2022/04/18 11:39:43;;;;;;;1.55;1.40;;;19.00;41.80;;;;;;5128960;27;45256;-76
2022/04/18 11:42:15;;;;;;;2.42;1.80;;;19.00;42.00;;;;;;5129524;27;45380;-76
2022/04/18 11:44:43;;;;;;;2.33;1.73;;;19.00;41.90;;;;;;5128921;27;45210;-76
2022/04/18 11:47:12;;;;;;;2.85;1.67;;;19.00;41.80;;;;;;5130260;27;45305;-76
2022/04/18 11:49:40;;;;;;;3.13;1.80;;;19.00;41.80;;;;;;5116072;27;45573;-76
2022/04/18 11:52:08;;;;;;;2.83;1.90;;;19.00;41.80;;;;;;5112798;27;46383;-76
2022/04/18 11:54:34;;;;;;;2.75;1.52;;;19.00;41.60;;;;;;5130517;27;45302;-76
2022/04/18 11:57:03;;;;;;;2.63;1.98;;;19.00;41.60;;;;;;5130642;27;45160;-76
2022/04/18 11:59:30;;;;;;;2.38;1.50;;;19.00;41.80;;;;;;5129165;27;45198;-76
2022/04/18 12:07:32;;;;;;;1.95;1.52;;;19.00;41.60;;;;;;5126941;27;45193;-76
2022/04/18 12:09:59;;;;;;;2.17;1.38;;;19.00;41.50;;;;;;5140832;27;45202;-76
2022/04/18 12:12:27;;;;;;;2.20;1.40;;;19.00;41.70;;;;;;5128353;27;45209;-76
2022/04/18 12:14:54;;;;;;;2.10;1.55;;;19.00;41.80;;;;;;5130350;27;45483;-76
2022/04/18 12:17:21;;;;;;;2.25;1.60;;;19.00;41.80;;;;;;5129902;27;46009;-76
2022/04/18 12:19:52;;;;;;;1.90;1.50;;;19.00;41.80;;;;;;5128813;27;45212;-76
2022/04/18 12:22:22;;;;;;;1.73;1.58;;;19.00;41.60;;;;;;5130448;27;45446;-76
2022/04/18 12:24:49;;;;;;;1.65;1.35;;;19.00;41.80;;;;;;5130269;27;45454;-76
2022/04/18 12:27:16;;;;;;;1.75;1.40;;;19.00;41.80;;;;;;5130082;27;47155;-76
2022/04/18 12:29:43;;;;;;;1.83;1.58;;;19.00;41.70;;;;;;5128994;27;45220;-76
2022/04/18 12:32:25;;;;;;;1.55;1.40;;;19.00;41.70;;;;;;5129786;27;45162;-75
2022/04/18 12:34:53;;;;;;;2.70;1.48;;;19.00;41.40;;;;;;5129476;27;45299;-76
2022/04/18 12:37:25;;;;;;;2.50;1.40;;;19.10;41.60;;;;;;5127974;27;45322;-76
2022/04/18 12:40:10;;;;;;;1.70;1.40;;;19.10;41.70;;;;;;5127404;27;45150;-76
2022/04/18 12:42:37;;;;;;;1.60;1.45;;;19.00;41.40;;;;;;5129806;27;45321;-76
2022/04/18 12:45:04;;;;;;;1.90;1.33;;;19.00;41.40;;;;;;5129484;27;45140;-76
2022/04/18 12:47:32;;;;;;;1.92;1.40;;;19.00;41.50;;;;;;5126792;27;46021;-78
2022/04/18 12:50:09;;;;;;;2.72;1.73;;;19.00;41.50;;;;;;5127601;27;45288;-76
2022/04/18 12:52:45;;;;;;;2.30;1.60;;;19.00;41.60;;;;;;5129328;27;45193;-76
2022/04/18 12:55:12;;;;;;;3.05;1.80;;;19.00;41.50;;;;;;5129735;27;45181;-76
2022/04/18 12:57:39;;;;;;;2.33;1.45;;;19.00;41.60;;;;;;5123826;27;46537;-76
2022/04/18 13:00:10;;;;;;;2.33;1.63;;;19.00;41.60;;;;;;5128535;27;45987;-75
2022/04/18 13:02:39;;;;;;;2.58;1.70;;;19.00;41.60;;;;;;5129262;27;45305;-75
2022/04/18 13:05:08;;;;;;;1.67;1.30;;;19.00;41.70;;;;;;5128011;27;45242;-75
2022/04/18 13:07:41;;;;;;;1.77;1.23;;;19.00;41.60;;;;;;5129219;27;45970;-75
2022/04/18 13:10:09;;;;;;;1.73;1.30;;;19.00;41.80;;;;;;5110788;27;45297;-76
2022/04/18 13:12:36;;;;;;;1.85;1.50;;;19.00;41.80;;;;;;5109698;27;45550;-76
2022/04/18 13:15:05;;;;;;;2.53;1.50;;;19.00;41.80;;;;;;5138619;27;45158;-76
2022/04/18 13:17:33;;;;;;;2.72;1.60;;;19.00;41.60;;;;;;5107150;27;45417;-76
2022/04/18 13:20:00;;;;;;;2.03;1.42;;;19.00;41.70;;;;;;5107456;27;45254;-76
2022/04/18 13:22:28;;;;;;;2.47;1.40;;;19.00;41.60;;;;;;5128699;27;45183;-76